Kobe Express — JG5504 — position and weather

sailwx.info

Track history (hours):
 
Tides and Currents Weather Stations Pressure Air Temp Water Temp Dewpoint Dewpoint Depression Visibility Wind Speed Wind Dir Waves Ship Positions

Kobe Express

Last reported at 2017-Nov-19 06:30 UTC. Time now 2017-Nov-19 06:35 UTC.
Position N 34°41' E 135°12'.

Length 170 m; draft 6.5 m.

Type: Passenger vessel. MMSI: 431301684.

Date/timePositionNaut miles runAvg speedWind from/ knotsBaromVisibWave heightAir tempDewpointWater temp
2017-Nov-19 06:30N 34°41' E 135°12'0 0.0
2017-Nov-19 06:00N 34°41' E 135°12'0 0.0
2017-Nov-19 05:30N 34°41' E 135°12'0 0.0
2017-Nov-19 05:00N 34°41' E 135°12'0 0.0
2017-Nov-19 04:30N 34°41' E 135°12'0 0.0
2017-Nov-19 04:00N 34°41' E 135°12'0 0.0
2017-Nov-19 03:30N 34°41' E 135°12'0 0.0
2017-Nov-19 03:00N 34°41' E 135°12'0 0.0
2017-Nov-19 02:30N 34°41' E 135°12'0 0.0
2017-Nov-19 02:00N 34°41' E 135°12'0 0.0
2017-Nov-19 01:30N 34°41' E 135°12'0 0.0
2017-Nov-19 01:00N 34°41' E 135°12'0 0.0
2017-Nov-19 00:30N 34°41' E 135°12'0 0.0
2017-Nov-19 00:00N 34°41' E 135°12'0 0.0
2017-Nov-18 23:30N 34°41' E 135°12'0 0.0
2017-Nov-18 23:00N 34°41' E 135°12'0 0.0
2017-Nov-18 22:30N 34°41' E 135°12'5 9.7
2017-Nov-18 22:00N 34°36' E 135°10'1122.6
2017-Nov-18 21:30N 34°26' E 135°04'1223.7
2017-Nov-18 21:00N 34°15' E 134°59'1122.6
2017-Nov-18 20:30N 34°04' E 134°57'6 0.2
2017-Nov-17 12:34N 33°59' E 134°52'320.9
2017-Nov-17 12:26N 34°01' E 134°53'921.2
2017-Nov-17 12:00N 34°10' E 134°56'1020.3
2017-Nov-17 11:30N 34°20' E 134°58'1020.1
2017-Nov-17 11:00N 34°29' E 135°04'1020.7
2017-Nov-17 10:30N 34°38' E 135°11'3 6.9
2017-Nov-17 10:00N 34°41' E 135°12'0 0.0
2017-Nov-17 09:30N 34°41' E 135°12'0 0.0
2017-Nov-17 09:00N 34°41' E 135°12'0 0.0
2017-Nov-17 08:30N 34°41' E 135°12'0 0.0
2017-Nov-17 08:00N 34°41' E 135°12'0 0.0
2017-Nov-17 07:30N 34°41' E 135°12'0 0.0
2017-Nov-17 06:59N 34°41' E 135°12'0 0.0
2017-Nov-17 06:30N 34°41' E 135°12'0 0.0
2017-Nov-17 06:00N 34°41' E 135°12'0 0.0
2017-Nov-17 05:30N 34°41' E 135°12'0 0.0
2017-Nov-17 05:00N 34°41' E 135°12'0 0.0
2017-Nov-17 04:30N 34°41' E 135°12'0 0.0
2017-Nov-17 04:00N 34°41' E 135°12'0 0.0
2017-Nov-17 03:30N 34°41' E 135°12'0 0.0
2017-Nov-17 03:00N 34°41' E 135°12'0 0.0
2017-Nov-17 02:30N 34°41' E 135°12'0 0.0
2017-Nov-17 02:00N 34°41' E 135°12'0 0.0
2017-Nov-17 01:30N 34°41' E 135°12'0 0.0
2017-Nov-17 01:00N 34°41' E 135°12'0 0.0
2017-Nov-17 00:30N 34°41' E 135°12'0 0.0
2017-Nov-17 00:00N 34°41' E 135°12'0 0.0
2017-Nov-16 23:30N 34°41' E 135°12'0 0.0
2017-Nov-16 23:00N 34°41' E 135°12'0 0.0
2017-Nov-16 22:30N 34°41' E 135°12'1 2.1
2017-Nov-16 22:00N 34°40' E 135°12'918.9
2017-Nov-16 21:30N 34°31' E 135°08'1122.0
2017-Nov-16 21:00N 34°21' E 135°02'1122.8
2017-Nov-16 20:31N 34°10' E 134°59'13 0.4
2017-Nov-15 12:30N 33°58' E 134°55'1121.5
2017-Nov-15 12:01N 34°09' E 134°57'1121.4
2017-Nov-15 11:30N 34°19' E 134°58'1021.1
2017-Nov-15 11:00N 34°29' E 135°04'1020.6
2017-Nov-15 10:30N 34°38' E 135°11'4 7.1
2017-Nov-15 10:00N 34°41' E 135°12'0 0.0
2017-Nov-15 09:30N 34°41' E 135°12'0 0.0
2017-Nov-15 09:00N 34°41' E 135°12'0 0.0
2017-Nov-15 08:30N 34°41' E 135°12'0 0.0
2017-Nov-15 08:00N 34°41' E 135°12'0 0.0
2017-Nov-15 07:30N 34°41' E 135°12'0 0.0
2017-Nov-15 07:00N 34°41' E 135°12'0 0.0
2017-Nov-15 06:30N 34°41' E 135°12'0 0.0
2017-Nov-15 06:00N 34°41' E 135°12'0 0.0
2017-Nov-15 05:30N 34°41' E 135°12'0 0.0
2017-Nov-15 05:00N 34°41' E 135°12'0 0.0
2017-Nov-15 04:30N 34°41' E 135°12'0 0.0
2017-Nov-15 04:00N 34°41' E 135°12'0 0.0
2017-Nov-15 03:30N 34°41' E 135°12'0 0.0
2017-Nov-15 03:00N 34°41' E 135°12'0 0.0
2017-Nov-15 02:30N 34°41' E 135°12'0 0.0
2017-Nov-15 02:00N 34°41' E 135°12'0 0.0
2017-Nov-15 01:30N 34°41' E 135°12'0 0.0
2017-Nov-15 01:00N 34°41' E 135°12'0 0.0
2017-Nov-15 00:30N 34°41' E 135°12'0 0.0
2017-Nov-15 00:00N 34°41' E 135°12'0 0.0
2017-Nov-14 23:30N 34°41' E 135°12'0 0.0
2017-Nov-14 23:00N 34°41' E 135°12'0 0.0
2017-Nov-14 22:30N 34°41' E 135°12'2 3.1
2017-Nov-14 22:01N 34°39' E 135°11'1020.8
2017-Nov-14 21:30N 34°30' E 135°07'1223.6
2017-Nov-14 21:01N 34°19' E 135°01'1223.4
2017-Nov-14 20:31N 34°08' E 134°59'35 0.8
2017-Nov-13 02:00N 34°41' E 135°12'0 0.0
2017-Nov-13 01:30N 34°41' E 135°12'0 0.0
2017-Nov-13 01:00N 34°41' E 135°12'0 0.0
2017-Nov-13 00:30N 34°41' E 135°12'0 0.0
2017-Nov-13 00:00N 34°41' E 135°12'0 0.0
2017-Nov-12 23:30N 34°41' E 135°12'0 0.0
2017-Nov-12 23:00N 34°41' E 135°12'0 0.0
2017-Nov-12 22:28N 34°41' E 135°12'2 4.1
2017-Nov-12 22:00N 34°39' E 135°11'918.9
2017-Nov-12 21:30N 34°31' E 135°06'918.0
2017-Nov-12 21:00N 34°22' E 135°02'1021.0
2017-Nov-12 20:30N 34°12' E 134°59'1121.7
2017-Nov-12 20:01N 34°01' E 134°57'4 0.1
2017-Nov-11 12:28N 33°58' E 134°55'1021.9
2017-Nov-11 12:01N 34°08' E 134°58'1322.0
2017-Nov-11 11:25N 34°21' E 134°59'922.3
2017-Nov-11 11:00N 34°29' E 135°05'1020.8
2017-Nov-11 10:30N 34°38' E 135°11'3 6.0
2017-Nov-11 10:00N 34°41' E 135°12'0 0.0
2017-Nov-11 09:30N 34°41' E 135°12'0 0.0
2017-Nov-11 09:00N 34°41' E 135°12'0 0.0
2017-Nov-11 08:30N 34°41' E 135°12'0 0.0
2017-Nov-11 08:00N 34°41' E 135°12'0 0.0
2017-Nov-11 07:30N 34°41' E 135°12'0 0.0
2017-Nov-11 07:00N 34°41' E 135°12'0 0.0
2017-Nov-11 06:30N 34°41' E 135°12'0 0.0
2017-Nov-11 06:00N 34°41' E 135°12'0 0.0
2017-Nov-11 05:30N 34°41' E 135°12'0 0.0
2017-Nov-11 05:00N 34°41' E 135°12'0 0.0
2017-Nov-11 04:30N 34°41' E 135°12'0 0.0
2017-Nov-11 04:00N 34°41' E 135°12'0 0.0
2017-Nov-11 03:30N 34°41' E 135°12'0 0.0
2017-Nov-11 03:00N 34°41' E 135°12'0 0.0
2017-Nov-11 02:30N 34°41' E 135°12'0 0.0
2017-Nov-11 02:00N 34°41' E 135°12'0 0.0
2017-Nov-11 01:30N 34°41' E 135°12'0 0.0
2017-Nov-11 01:00N 34°41' E 135°12'0 0.0
2017-Nov-11 00:30N 34°41' E 135°12'0 0.0
2017-Nov-11 00:00N 34°41' E 135°12'0 0.0
2017-Nov-10 23:30N 34°41' E 135°12'0 0.0
2017-Nov-10 23:00N 34°41' E 135°12'0 0.0
2017-Nov-10 22:30N 34°41' E 135°12'1 2.8
2017-Nov-10 22:00N 34°40' E 135°12'1019.8
2017-Nov-10 21:30N 34°30' E 135°07'1121.6
2017-Nov-10 21:00N 34°21' E 135°02'1020.7
2017-Nov-10 20:30N 34°11' E 134°58'1121.0
2017-Nov-10 20:00N 34°00' E 134°56'5 0.2
2017-Nov-09 12:35N 33°56' E 134°53'222.4
2017-Nov-09 12:30N 33°58' E 134°53'1121.9
2017-Nov-09 12:00N 34°08' E 134°56'1122.5
2017-Nov-09 11:30N 34°20' E 134°59'1121.3
2017-Nov-09 11:00N 34°29' E 135°04'1020.4
2017-Nov-09 10:30N 34°38' E 135°10'3 6.5
2017-Nov-09 10:00N 34°41' E 135°12'0 0.0
2017-Nov-09 09:30N 34°41' E 135°12'0 0.0
2017-Nov-09 09:00N 34°41' E 135°12'0 0.0
2017-Nov-09 08:30N 34°41' E 135°12'0 0.0
2017-Nov-09 08:00N 34°41' E 135°12'0 0.0
2017-Nov-09 07:30N 34°41' E 135°12'0 0.0
2017-Nov-09 07:00N 34°41' E 135°12'0 0.0
2017-Nov-09 06:30N 34°41' E 135°12'  
Track history (hours):
 
Tides and Currents Weather Stations Pressure Air Temp Water Temp Dewpoint Dewpoint Depression Visibility Wind Speed Wind Dir Waves Ship Positions

Kobe Express

Last reported at 2017-Nov-19 06:30 UTC. Time now 2017-Nov-19 06:35 UTC.
Position N 34°41' E 135°12'.

Length 170 m; draft 6.5 m.

Type: Passenger vessel. MMSI: 431301684.

Date/timePositionNaut miles runAvg speedWind from/ knotsBaromVisibWave heightAir tempDewpointWater temp
2017-Nov-19 06:30N 34°41' E 135°12'0 0.0
2017-Nov-19 06:00N 34°41' E 135°12'0 0.0
2017-Nov-19 05:30N 34°41' E 135°12'0 0.0
2017-Nov-19 05:00N 34°41' E 135°12'0 0.0
2017-Nov-19 04:30N 34°41' E 135°12'0 0.0
2017-Nov-19 04:00N 34°41' E 135°12'0 0.0
2017-Nov-19 03:30N 34°41' E 135°12'0 0.0
2017-Nov-19 03:00N 34°41' E 135°12'0 0.0
2017-Nov-19 02:30N 34°41' E 135°12'0 0.0
2017-Nov-19 02:00N 34°41' E 135°12'0 0.0
2017-Nov-19 01:30N 34°41' E 135°12'0 0.0
2017-Nov-19 01:00N 34°41' E 135°12'0 0.0
2017-Nov-19 00:30N 34°41' E 135°12'0 0.0
2017-Nov-19 00:00N 34°41' E 135°12'0 0.0
2017-Nov-18 23:30N 34°41' E 135°12'0 0.0
2017-Nov-18 23:00N 34°41' E 135°12'0 0.0
2017-Nov-18 22:30N 34°41' E 135°12'5 9.7
2017-Nov-18 22:00N 34°36' E 135°10'1122.6
2017-Nov-18 21:30N 34°26' E 135°04'1223.7
2017-Nov-18 21:00N 34°15' E 134°59'1122.6
2017-Nov-18 20:30N 34°04' E 134°57'6 0.2
2017-Nov-17 12:34N 33°59' E 134°52'320.9
2017-Nov-17 12:26N 34°01' E 134°53'921.2
2017-Nov-17 12:00N 34°10' E 134°56'1020.3
2017-Nov-17 11:30N 34°20' E 134°58'1020.1
2017-Nov-17 11:00N 34°29' E 135°04'1020.7
2017-Nov-17 10:30N 34°38' E 135°11'3 6.9
2017-Nov-17 10:00N 34°41' E 135°12'0 0.0
2017-Nov-17 09:30N 34°41' E 135°12'0 0.0
2017-Nov-17 09:00N 34°41' E 135°12'0 0.0
2017-Nov-17 08:30N 34°41' E 135°12'0 0.0
2017-Nov-17 08:00N 34°41' E 135°12'0 0.0
2017-Nov-17 07:30N 34°41' E 135°12'0 0.0
2017-Nov-17 06:59N 34°41' E 135°12'0 0.0
2017-Nov-17 06:30N 34°41' E 135°12'0 0.0
2017-Nov-17 06:00N 34°41' E 135°12'0 0.0
2017-Nov-17 05:30N 34°41' E 135°12'0 0.0
2017-Nov-17 05:00N 34°41' E 135°12'0 0.0
2017-Nov-17 04:30N 34°41' E 135°12'0 0.0
2017-Nov-17 04:00N 34°41' E 135°12'0 0.0
2017-Nov-17 03:30N 34°41' E 135°12'0 0.0
2017-Nov-17 03:00N 34°41' E 135°12'0 0.0
2017-Nov-17 02:30N 34°41' E 135°12'0 0.0
2017-Nov-17 02:00N 34°41' E 135°12'0 0.0
2017-Nov-17 01:30N 34°41' E 135°12'0 0.0
2017-Nov-17 01:00N 34°41' E 135°12'0 0.0
2017-Nov-17 00:30N 34°41' E 135°12'0 0.0
2017-Nov-17 00:00N 34°41' E 135°12'0 0.0
2017-Nov-16 23:30N 34°41' E 135°12'0 0.0
2017-Nov-16 23:00N 34°41' E 135°12'0 0.0
2017-Nov-16 22:30N 34°41' E 135°12'1 2.1
2017-Nov-16 22:00N 34°40' E 135°12'918.9
2017-Nov-16 21:30N 34°31' E 135°08'1122.0
2017-Nov-16 21:00N 34°21' E 135°02'1122.8
2017-Nov-16 20:31N 34°10' E 134°59'13 0.4
2017-Nov-15 12:30N 33°58' E 134°55'1121.5
2017-Nov-15 12:01N 34°09' E 134°57'1121.4
2017-Nov-15 11:30N 34°19' E 134°58'1021.1
2017-Nov-15 11:00N 34°29' E 135°04'1020.6
2017-Nov-15 10:30N 34°38' E 135°11'4 7.1
2017-Nov-15 10:00N 34°41' E 135°12'0 0.0
2017-Nov-15 09:30N 34°41' E 135°12'0 0.0
2017-Nov-15 09:00N 34°41' E 135°12'0 0.0
2017-Nov-15 08:30N 34°41' E 135°12'0 0.0
2017-Nov-15 08:00N 34°41' E 135°12'0 0.0
2017-Nov-15 07:30N 34°41' E 135°12'0 0.0
2017-Nov-15 07:00N 34°41' E 135°12'0 0.0
2017-Nov-15 06:30N 34°41' E 135°12'0 0.0
2017-Nov-15 06:00N 34°41' E 135°12'0 0.0
2017-Nov-15 05:30N 34°41' E 135°12'0 0.0
2017-Nov-15 05:00N 34°41' E 135°12'0 0.0
2017-Nov-15 04:30N 34°41' E 135°12'0 0.0
2017-Nov-15 04:00N 34°41' E 135°12'0 0.0
2017-Nov-15 03:30N 34°41' E 135°12'0 0.0
2017-Nov-15 03:00N 34°41' E 135°12'0 0.0
2017-Nov-15 02:30N 34°41' E 135°12'0 0.0
2017-Nov-15 02:00N 34°41' E 135°12'0 0.0
2017-Nov-15 01:30N 34°41' E 135°12'0 0.0
2017-Nov-15 01:00N 34°41' E 135°12'0 0.0
2017-Nov-15 00:30N 34°41' E 135°12'0 0.0
2017-Nov-15 00:00N 34°41' E 135°12'0 0.0
2017-Nov-14 23:30N 34°41' E 135°12'0 0.0
2017-Nov-14 23:00N 34°41' E 135°12'0 0.0
2017-Nov-14 22:30N 34°41' E 135°12'2 3.1
2017-Nov-14 22:01N 34°39' E 135°11'1020.8
2017-Nov-14 21:30N 34°30' E 135°07'1223.6
2017-Nov-14 21:01N 34°19' E 135°01'1223.4
2017-Nov-14 20:31N 34°08' E 134°59'35 0.8
2017-Nov-13 02:00N 34°41' E 135°12'0 0.0
2017-Nov-13 01:30N 34°41' E 135°12'0 0.0
2017-Nov-13 01:00N 34°41' E 135°12'0 0.0
2017-Nov-13 00:30N 34°41' E 135°12'0 0.0
2017-Nov-13 00:00N 34°41' E 135°12'0 0.0
2017-Nov-12 23:30N 34°41' E 135°12'0 0.0
2017-Nov-12 23:00N 34°41' E 135°12'0 0.0
2017-Nov-12 22:28N 34°41' E 135°12'2 4.1
2017-Nov-12 22:00N 34°39' E 135°11'918.9
2017-Nov-12 21:30N 34°31' E 135°06'918.0
2017-Nov-12 21:00N 34°22' E 135°02'1021.0
2017-Nov-12 20:30N 34°12' E 134°59'1121.7
2017-Nov-12 20:01N 34°01' E 134°57'4 0.1
2017-Nov-11 12:28N 33°58' E 134°55'1021.9
2017-Nov-11 12:01N 34°08' E 134°58'1322.0
2017-Nov-11 11:25N 34°21' E 134°59'922.3
2017-Nov-11 11:00N 34°29' E 135°05'1020.8
2017-Nov-11 10:30N 34°38' E 135°11'3 6.0
2017-Nov-11 10:00N 34°41' E 135°12'0 0.0
2017-Nov-11 09:30N 34°41' E 135°12'0 0.0
2017-Nov-11 09:00N 34°41' E 135°12'0 0.0
2017-Nov-11 08:30N 34°41' E 135°12'0 0.0
2017-Nov-11 08:00N 34°41' E 135°12'0 0.0
2017-Nov-11 07:30N 34°41' E 135°12'0 0.0
2017-Nov-11 07:00N 34°41' E 135°12'0 0.0
2017-Nov-11 06:30N 34°41' E 135°12'0 0.0
2017-Nov-11 06:00N 34°41' E 135°12'0 0.0
2017-Nov-11 05:30N 34°41' E 135°12'0 0.0
2017-Nov-11 05:00N 34°41' E 135°12'0 0.0
2017-Nov-11 04:30N 34°41' E 135°12'0 0.0
2017-Nov-11 04:00N 34°41' E 135°12'0 0.0
2017-Nov-11 03:30N 34°41' E 135°12'0 0.0
2017-Nov-11 03:00N 34°41' E 135°12'0 0.0
2017-Nov-11 02:30N 34°41' E 135°12'0 0.0
2017-Nov-11 02:00N 34°41' E 135°12'0 0.0
2017-Nov-11 01:30N 34°41' E 135°12'0 0.0
2017-Nov-11 01:00N 34°41' E 135°12'0 0.0
2017-Nov-11 00:30N 34°41' E 135°12'0 0.0
2017-Nov-11 00:00N 34°41' E 135°12'0 0.0
2017-Nov-10 23:30N 34°41' E 135°12'0 0.0
2017-Nov-10 23:00N 34°41' E 135°12'0 0.0
2017-Nov-10 22:30N 34°41' E 135°12'1 2.8
2017-Nov-10 22:00N 34°40' E 135°12'1019.8
2017-Nov-10 21:30N 34°30' E 135°07'1121.6
2017-Nov-10 21:00N 34°21' E 135°02'1020.7
2017-Nov-10 20:30N 34°11' E 134°58'1121.0
2017-Nov-10 20:00N 34°00' E 134°56'5 0.2
2017-Nov-09 12:35N 33°56' E 134°53'222.4
2017-Nov-09 12:30N 33°58' E 134°53'1121.9
2017-Nov-09 12:00N 34°08' E 134°56'1122.5
2017-Nov-09 11:30N 34°20' E 134°59'1121.3
2017-Nov-09 11:00N 34°29' E 135°04'1020.4
2017-Nov-09 10:30N 34°38' E 135°10'3 6.5
2017-Nov-09 10:00N 34°41' E 135°12'0 0.0
2017-Nov-09 09:30N 34°41' E 135°12'0 0.0
2017-Nov-09 09:00N 34°41' E 135°12'0 0.0
2017-Nov-09 08:30N 34°41' E 135°12'0 0.0
2017-Nov-09 08:00N 34°41' E 135°12'0 0.0
2017-Nov-09 07:30N 34°41' E 135°12'0 0.0
2017-Nov-09 07:00N 34°41' E 135°12'0 0.0
2017-Nov-09 06:30N 34°41' E 135°12'  

Dump ship's entire track history